Time;durP1;ratioP1;P1;durP2;ratioP2;P2;SDS_P1;SDS_P2;PMS_P1;PMS_P2;Temp;Humidity;BMP_temperature;BMP_pressure;BME280_temperature;BME280_humidity;BME280_pressure;Samples;Min_cycle;Max_cycle;Signal;HPM_P1;HPM_P2
2022/07/31 00:02:19;;;;;;;;;;;25.70;53.60;;;;;;5116423;28;19954;-76
2022/07/31 00:04:45;;;;;;;;;;;25.60;53.70;;;;;;5116267;28;20269;-76
2022/07/31 00:07:10;;;;;;;;;;;25.60;53.80;;;;;;5115321;28;20269;-76
2022/07/31 00:09:36;;;;;;;;;;;25.60;53.90;;;;;;5116517;28;20342;-76
2022/07/31 00:12:02;;;;;;;;;;;25.60;53.80;;;;;;5116434;28;20374;-75
2022/07/31 00:14:28;;;;;;;;;;;25.60;53.70;;;;;;5115112;28;20365;-76
2022/07/31 00:16:53;;;;;;;;;;;25.60;53.80;;;;;;5115974;28;19968;-76
2022/07/31 00:19:19;;;;;;;;;;;25.50;53.90;;;;;;5116228;28;20337;-76
2022/07/31 00:21:44;;;;;;;;;;;25.60;54.20;;;;;;5116649;28;19907;-75
2022/07/31 00:24:10;;;;;;;;;;;25.50;54.20;;;;;;5114995;28;20265;-75
2022/07/31 00:26:36;;;;;;;;;;;25.50;54.30;;;;;;5116226;28;19908;-75
2022/07/31 00:29:02;;;;;;;;;;;25.50;54.40;;;;;;5115930;28;19912;-76
2022/07/31 00:31:27;;;;;;;;;;;25.40;54.30;;;;;;5116037;28;20316;-76
2022/07/31 00:33:53;;;;;;;;;;;25.40;54.40;;;;;;5115654;28;19930;-75
2022/07/31 00:36:18;;;;;;;;;;;25.40;54.60;;;;;;5114583;28;19931;-76
2022/07/31 00:38:44;;;;;;;;;;;25.40;54.70;;;;;;5115797;28;20385;-75
2022/07/31 00:41:10;;;;;;;;;;;25.40;54.60;;;;;;5115887;28;20462;-76
2022/07/31 00:43:35;;;;;;;;;;;25.30;54.30;;;;;;5115709;28;19908;-75
2022/07/31 00:46:01;;;;;;;;;;;25.30;54.70;;;;;;5115579;28;20006;-75
2022/07/31 00:48:27;;;;;;;;;;;25.30;54.60;;;;;;5115589;28;19998;-75
2022/07/31 00:50:52;;;;;;;;;;;25.20;54.70;;;;;;5115679;28;20383;-75
2022/07/31 00:53:18;;;;;;;;;;;25.20;54.80;;;;;;5115764;28;19931;-75
2022/07/31 00:55:43;;;;;;;;;;;25.20;54.90;;;;;;5115329;28;19923;-75
2022/07/31 00:58:09;;;;;;;;;;;25.20;54.90;;;;;;5115468;28;19922;-76
2022/07/31 01:00:34;;;;;;;;;;;25.20;55.00;;;;;;5115413;28;19939;-75
2022/07/31 01:03:00;;;;;;;;;;;25.20;55.00;;;;;;5114997;28;19985;-75
2022/07/31 01:05:25;;;;;;;;;;;25.20;54.90;;;;;;5114049;28;19908;-75
2022/07/31 01:07:51;;;;;;;;;;;25.20;55.10;;;;;;5115849;28;19912;-75
2022/07/31 01:10:34;;;;;;;;;;;25.20;54.90;;;;;;5115386;28;19912;-75
2022/07/31 01:13:03;;;;;;;;;;;25.10;55.10;;;;;;5115007;28;19912;-75
2022/07/31 01:15:29;;;;;;;;;;;25.10;55.10;;;;;;5114865;28;19968;-75
2022/07/31 01:17:55;;;;;;;;;;;25.10;55.10;;;;;;5114773;28;20345;-75
2022/07/31 01:20:21;;;;;;;;;;;25.10;54.90;;;;;;5115003;28;19960;-75
2022/07/31 01:22:50;;;;;;;;;;;25.00;55.10;;;;;;5115164;28;19958;-75
2022/07/31 01:25:25;;;;;;;;;;;25.00;55.50;;;;;;5114769;28;19915;-75
2022/07/31 01:28:08;;;;;;;;;;;25.00;55.40;;;;;;5115015;28;19969;-76
2022/07/31 01:30:38;;;;;;;;;;;25.00;55.40;;;;;;5114496;28;19908;-76
2022/07/31 01:33:09;;;;;;;;;;;25.00;55.40;;;;;;5114948;28;20004;-75
2022/07/31 01:35:38;;;;;;;;;;;25.00;55.70;;;;;;5113203;28;19966;-74
2022/07/31 01:38:09;;;;;;;;;;;24.90;55.80;;;;;;5114912;28;19919;-75
2022/07/31 01:40:36;;;;;;;;;;;24.90;55.90;;;;;;5114229;28;19955;-76
2022/07/31 01:43:06;;;;;;;;;;;24.80;55.60;;;;;;5114814;28;19919;-75
2022/07/31 01:45:32;;;;;;;;;;;24.80;55.50;;;;;;5114840;28;19911;-75
2022/07/31 01:47:59;;;;;;;;;;;24.70;56.00;;;;;;5114739;28;19951;-75
2022/07/31 01:50:25;;;;;;;;;;;24.70;56.00;;;;;;5114683;28;19915;-75
2022/07/31 01:52:51;;;;;;;;;;;24.60;56.00;;;;;;5114604;28;19943;-75
2022/07/31 01:55:18;;;;;;;;;;;24.60;56.10;;;;;;5115645;28;19939;-76
2022/07/31 01:57:44;;;;;;;;;;;24.60;56.30;;;;;;5114834;28;19915;-76
2022/07/31 02:00:10;;;;;;;;;;;24.60;56.20;;;;;;5113234;28;19938;-76
2022/07/31 02:02:37;;;;;;;;;;;24.60;56.30;;;;;;5114572;28;19947;-76
2022/07/31 02:05:06;;;;;;;;;;;24.60;56.40;;;;;;5113520;28;20274;-76
2022/07/31 02:07:39;;;;;;;;;;;24.60;56.30;;;;;;5114348;28;19912;-76
2022/07/31 02:10:07;;;;;;;;;;;24.60;56.50;;;;;;5114827;28;19908;-76
2022/07/31 02:12:33;;;;;;;;;;;24.60;56.30;;;;;;5112645;28;20274;-75
2022/07/31 02:14:59;;;;;;;;;;;24.60;56.30;;;;;;5113039;28;19915;-75
2022/07/31 02:17:25;;;;;;;;;;;24.60;56.50;;;;;;5114109;28;20369;-75
2022/07/31 02:19:51;;;;;;;;;;;24.60;56.50;;;;;;5112783;28;19947;-76
2022/07/31 02:22:17;;;;;;;;;;;24.60;56.50;;;;;;5114411;28;20501;-76
2022/07/31 02:24:43;;;;;;;;;;;24.60;56.50;;;;;;5114696;28;19908;-76
2022/07/31 02:27:10;;;;;;;;;;;24.60;56.60;;;;;;5114547;28;19907;-75
2022/07/31 02:29:36;;;;;;;;;;;24.60;56.40;;;;;;5114126;28;20006;-75
2022/07/31 02:32:02;;;;;;;;;;;24.70;56.50;;;;;;5114155;28;19939;-74
2022/07/31 02:34:29;;;;;;;;;;;24.70;56.50;;;;;;5113928;28;19919;-76
2022/07/31 02:36:55;;;;;;;;;;;24.70;56.60;;;;;;5114007;28;19977;-76
2022/07/31 02:39:21;;;;;;;;;;;24.70;56.60;;;;;;5114102;28;19943;-73
2022/07/31 02:41:48;;;;;;;;;;;24.70;56.60;;;;;;5114247;28;20007;-76
2022/07/31 02:44:13;;;;;;;;;;;24.70;56.60;;;;;;5114093;28;20266;-75
2022/07/31 02:46:41;;;;;;;;;;;24.70;56.60;;;;;;5114165;28;19907;-76
2022/07/31 02:49:07;;;;;;;;;;;24.70;56.60;;;;;;5112803;28;19912;-77
2022/07/31 02:51:33;;;;;;;;;;;24.80;56.60;;;;;;5117634;28;19964;-76
2022/07/31 02:53:58;;;;;;;;;;;24.80;56.70;;;;;;5118314;28;19907;-76
2022/07/31 02:56:24;;;;;;;;;;;24.90;56.60;;;;;;5117649;28;19916;-76
2022/07/31 02:58:50;;;;;;;;;;;24.90;56.80;;;;;;5117992;28;20362;-76
2022/07/31 03:01:15;;;;;;;;;;;24.90;56.80;;;;;;5117701;28;19922;-77
2022/07/31 03:03:41;;;;;;;;;;;24.90;56.70;;;;;;5117560;28;19987;-76
2022/07/31 03:06:07;;;;;;;;;;;25.00;56.80;;;;;;5117649;28;19918;-77
2022/07/31 03:08:33;;;;;;;;;;;25.00;56.90;;;;;;5117761;28;19986;-77
2022/07/31 03:10:59;;;;;;;;;;;25.00;56.80;;;;;;5117669;28;19933;-77
2022/07/31 03:13:27;;;;;;;;;;;25.00;56.80;;;;;;5116437;28;20435;-77
2022/07/31 03:15:53;;;;;;;;;;;25.00;56.90;;;;;;5117641;28;19915;-77
2022/07/31 03:18:20;;;;;;;;;;;25.00;56.80;;;;;;5116004;28;20003;-75
2022/07/31 03:20:50;;;;;;;;;;;25.00;56.90;;;;;;5117697;28;19935;-76
2022/07/31 03:23:16;;;;;;;;;;;25.10;56.80;;;;;;5117531;28;19959;-77
2022/07/31 03:25:42;;;;;;;;;;;25.10;57.00;;;;;;5117709;28;19912;-77
2022/07/31 03:28:08;;;;;;;;;;;25.10;56.70;;;;;;5117574;28;19915;-77
2022/07/31 03:30:34;;;;;;;;;;;25.10;56.80;;;;;;5117136;28;19958;-77
2022/07/31 03:33:02;;;;;;;;;;;25.10;56.90;;;;;;5116876;28;20366;-77
2022/07/31 03:35:28;;;;;;;;;;;25.20;56.80;;;;;;5117306;28;20015;-76
2022/07/31 03:37:53;;;;;;;;;;;25.20;56.70;;;;;;5116712;28;20396;-76
2022/07/31 03:40:19;;;;;;;;;;;25.20;56.80;;;;;;5117212;28;19914;-75
2022/07/31 03:42:46;;;;;;;;;;;25.30;56.70;;;;;;5115935;28;19995;-76
2022/07/31 03:45:12;;;;;;;;;;;25.30;56.60;;;;;;5116763;28;19919;-76
2022/07/31 03:47:38;;;;;;;;;;;25.30;56.60;;;;;;5116582;28;19911;-76
2022/07/31 03:50:05;;;;;;;;;;;25.40;56.40;;;;;;5116882;28;20015;-76
2022/07/31 03:52:31;;;;;;;;;;;25.40;56.60;;;;;;5116514;28;19908;-77
2022/07/31 03:54:56;;;;;;;;;;;25.40;55.90;;;;;;5115825;28;19915;-77
2022/07/31 03:57:22;;;;;;;;;;;25.40;56.70;;;;;;5116841;28;20415;-77
2022/07/31 03:59:49;;;;;;;;;;;25.40;56.60;;;;;;5116841;28;19907;-77
2022/07/31 04:02:15;;;;;;;;;;;25.40;56.90;;;;;;5116308;28;20278;-77
2022/07/31 04:04:41;;;;;;;;;;;25.40;56.70;;;;;;5116667;28;19908;-77
2022/07/31 04:07:07;;;;;;;;;;;25.50;56.70;;;;;;5115432;28;19930;-76
2022/07/31 04:09:33;;;;;;;;;;;25.50;56.70;;;;;;5116443;28;20357;-77
2022/07/31 04:11:58;;;;;;;;;;;25.50;56.80;;;;;;5116448;28;20369;-77
2022/07/31 04:14:24;;;;;;;;;;;25.60;56.90;;;;;;5116217;28;19915;-77
2022/07/31 04:16:49;;;;;;;;;;;25.60;56.70;;;;;;5115993;28;20027;-76
2022/07/31 04:19:15;;;;;;;;;;;25.70;56.60;;;;;;5116177;28;19947;-76
2022/07/31 04:21:40;;;;;;;;;;;25.70;56.50;;;;;;5116011;28;20009;-76
2022/07/31 04:24:06;;;;;;;;;;;25.60;56.70;;;;;;5115177;28;19919;-77
2022/07/31 04:26:32;;;;;;;;;;;25.60;56.60;;;;;;5115944;28;19918;-76
2022/07/31 04:28:57;;;;;;;;;;;25.70;57.00;;;;;;5115936;28;19908;-76
2022/07/31 04:31:23;;;;;;;;;;;25.70;57.10;;;;;;5116008;28;19918;-77
2022/07/31 04:33:49;;;;;;;;;;;25.70;57.50;;;;;;5115889;28;19959;-78
2022/07/31 04:36:16;;;;;;;;;;;25.60;57.50;;;;;;5116069;28;19923;-77
2022/07/31 04:38:42;;;;;;;;;;;25.60;57.00;;;;;;5115771;28;19922;-77
2022/07/31 04:41:07;;;;;;;;;;;25.60;57.00;;;;;;5114727;28;19907;-77
2022/07/31 04:43:33;;;;;;;;;;;25.60;57.20;;;;;;5115628;28;19908;-78
2022/07/31 04:45:58;;;;;;;;;;;25.60;57.00;;;;;;5116271;28;19919;-77
2022/07/31 04:48:24;;;;;;;;;;;25.70;57.00;;;;;;5115624;28;19912;-77
2022/07/31 04:50:49;;;;;;;;;;;25.70;56.80;;;;;;5115480;28;19954;-77
2022/07/31 04:53:15;;;;;;;;;;;25.70;56.80;;;;;;5114401;27;19914;-77
2022/07/31 04:55:40;;;;;;;;;;;25.80;57.30;;;;;;5115393;28;19915;-77
2022/07/31 04:58:06;;;;;;;;;;;25.80;56.90;;;;;;5115571;28;19922;-77
2022/07/31 05:00:31;;;;;;;;;;;25.80;56.80;;;;;;5115212;28;20052;-77
2022/07/31 05:02:57;;;;;;;;;;;25.80;57.00;;;;;;5115182;28;19912;-77
2022/07/31 05:05:23;;;;;;;;;;;25.80;57.20;;;;;;5115402;28;19912;-77
2022/07/31 05:07:49;;;;;;;;;;;25.80;57.00;;;;;;5115392;28;19927;-77
2022/07/31 05:11:21;;;;;;;;;;;25.90;57.30;;;;;;5115695;28;20342;-77
2022/07/31 05:13:00;;;;;;;;;;;25.90;57.40;;;;;;5115220;28;19916;-76
2022/07/31 05:15:25;;;;;;;;;;;25.90;56.90;;;;;;5114804;28;20350;-78
2022/07/31 05:17:51;;;;;;;;;;;25.90;57.20;;;;;;5115070;28;19912;-77
2022/07/31 05:20:16;;;;;;;;;;;25.90;56.80;;;;;;5114940;28;19911;-77
2022/07/31 05:22:42;;;;;;;;;;;25.90;57.20;;;;;;5115021;28;19912;-77
2022/07/31 05:25:07;;;;;;;;;;;25.90;57.70;;;;;;5114124;28;19907;-76
2022/07/31 05:27:33;;;;;;;;;;;26.00;56.90;;;;;;5114682;28;19914;-77
2022/07/31 05:29:59;;;;;;;;;;;26.00;56.90;;;;;;5113736;28;19951;-77
2022/07/31 05:32:24;;;;;;;;;;;26.00;57.00;;;;;;5114903;28;19908;-77
2022/07/31 05:34:50;;;;;;;;;;;26.00;56.70;;;;;;5113571;28;19920;-77
2022/07/31 05:37:15;;;;;;;;;;;26.10;57.00;;;;;;5114631;28;20305;-77
2022/07/31 05:39:44;;;;;;;;;;;26.10;56.90;;;;;;5115125;28;20353;-76
2022/07/31 05:42:09;;;;;;;;;;;26.10;57.00;;;;;;5113403;28;20369;-76
2022/07/31 05:44:35;;;;;;;;;;;26.20;56.90;;;;;;5113477;28;19907;-77
2022/07/31 05:47:00;;;;;;;;;;;26.20;57.50;;;;;;5114809;28;19911;-76
2022/07/31 05:49:27;;;;;;;;;;;26.20;57.30;;;;;;5114792;28;19908;-78
2022/07/31 05:51:53;;;;;;;;;;;26.20;57.70;;;;;;5114908;28;19908;-78
2022/07/31 05:54:20;;;;;;;;;;;26.10;57.30;;;;;;5113262;28;19908;-76
2022/07/31 05:56:46;;;;;;;;;;;26.10;57.10;;;;;;5114492;28;20296;-76
2022/07/31 05:59:11;;;;;;;;;;;26.10;56.90;;;;;;5113251;28;20385;-77
2022/07/31 06:01:37;;;;;;;;;;;26.10;56.80;;;;;;5114349;28;19915;-76
2022/07/31 06:04:02;;;;;;;;;;;26.20;57.00;;;;;;5114460;28;19908;-77
2022/07/31 06:06:28;;;;;;;;;;;26.20;56.80;;;;;;5114474;28;19915;-75
2022/07/31 06:08:54;;;;;;;;;;;26.20;56.80;;;;;;5114249;28;19912;-76
2022/07/31 06:11:20;;;;;;;;;;;26.20;56.60;;;;;;5114141;28;19961;-77
2022/07/31 06:13:45;;;;;;;;;;;26.30;56.60;;;;;;5114230;28;19907;-77
2022/07/31 06:16:12;;;;;;;;;;;26.20;56.40;;;;;;5114499;28;20280;-77
2022/07/31 06:18:38;;;;;;;;;;;26.30;56.40;;;;;;5114339;28;19912;-77
2022/07/31 06:21:03;;;;;;;;;;;26.30;56.50;;;;;;5114564;28;19915;-77
2022/07/31 06:23:30;;;;;;;;;;;26.30;56.20;;;;;;5114510;28;20362;-77
2022/07/31 06:25:55;;;;;;;;;;;26.30;56.60;;;;;;5115325;28;20338;-77
2022/07/31 06:28:21;;;;;;;;;;;26.30;56.30;;;;;;5118497;28;19961;-78
2022/07/31 06:30:46;;;;;;;;;;;26.30;56.40;;;;;;5118334;28;19915;-76
2022/07/31 06:33:12;;;;;;;;;;;26.30;56.50;;;;;;5118463;28;19908;-77
2022/07/31 06:35:38;;;;;;;;;;;26.30;56.30;;;;;;5116909;28;19920;-77
2022/07/31 06:38:03;;;;;;;;;;;26.30;56.20;;;;;;5118050;28;19916;-77
2022/07/31 06:40:29;;;;;;;;;;;26.40;56.10;;;;;;5116912;28;19912;-78
2022/07/31 06:42:54;;;;;;;;;;;26.40;56.10;;;;;;5118131;28;19914;-77
2022/07/31 06:45:20;;;;;;;;;;;26.40;56.00;;;;;;5118679;28;19961;-77
2022/07/31 06:47:46;;;;;;;;;;;26.40;55.80;;;;;;5118032;28;19908;-77
2022/07/31 06:50:11;;;;;;;;;;;26.50;55.70;;;;;;5117909;28;20053;-77
2022/07/31 06:52:37;;;;;;;;;;;26.50;55.50;;;;;;5118096;28;19912;-77
2022/07/31 06:55:03;;;;;;;;;;;26.50;55.40;;;;;;5117837;28;20378;-78
2022/07/31 06:57:28;;;;;;;;;;;26.50;55.10;;;;;;5118084;28;20010;-77
2022/07/31 06:59:54;;;;;;;;;;;26.50;55.10;;;;;;5117587;28;19946;-77
2022/07/31 07:02:20;;;;;;;;;;;26.50;55.10;;;;;;5117702;28;19907;-78
2022/07/31 07:04:46;;;;;;;;;;;26.50;55.00;;;;;;5117757;28;19915;-77
2022/07/31 07:07:11;;;;;;;;;;;26.60;55.20;;;;;;5117870;28;19912;-77
2022/07/31 07:09:37;;;;;;;;;;;26.50;55.00;;;;;;5117346;28;19908;-78
2022/07/31 07:12:03;;;;;;;;;;;26.60;55.10;;;;;;5117394;28;19907;-77
2022/07/31 07:14:28;;;;;;;;;;;26.60;55.10;;;;;;5117537;28;19912;-77
2022/07/31 07:16:54;;;;;;;;;;;26.60;55.00;;;;;;5117407;28;19956;-77
2022/07/31 07:19:19;;;;;;;;;;;26.60;55.00;;;;;;5117221;28;20011;-76
2022/07/31 07:21:45;;;;;;;;;;;26.60;55.10;;;;;;5117366;28;20350;-76
2022/07/31 07:24:10;;;;;;;;;;;26.60;55.00;;;;;;5117224;28;19908;-78
2022/07/31 07:26:36;;;;;;;;;;;26.70;54.90;;;;;;5117265;28;19908;-77
2022/07/31 07:29:01;;;;;;;;;;;26.70;54.70;;;;;;5117271;28;19911;-77
2022/07/31 07:31:27;;;;;;;;;;;26.70;54.70;;;;;;5116789;28;20003;-77
2022/07/31 07:33:54;;;;;;;;;;;26.70;54.60;;;;;;5117048;28;19915;-78
2022/07/31 07:36:20;;;;;;;;;;;26.70;54.50;;;;;;5117040;28;19985;-77
2022/07/31 07:38:45;;;;;;;;;;;26.70;54.50;;;;;;5116650;28;20343;-76
2022/07/31 07:41:11;;;;;;;;;;;26.70;54.10;;;;;;5117841;28;20296;-77
2022/07/31 07:43:36;;;;;;;;;;;26.70;53.80;;;;;;5117565;28;19908;-77
2022/07/31 07:46:02;;;;;;;;;;;26.70;54.00;;;;;;5116829;28;19911;-77
2022/07/31 07:48:28;;;;;;;;;;;26.70;53.80;;;;;;5115449;28;19917;-77
2022/07/31 07:50:54;;;;;;;;;;;26.70;53.70;;;;;;5116792;28;19907;-77
2022/07/31 07:53:19;;;;;;;;;;;26.70;53.60;;;;;;5115342;28;20416;-77
2022/07/31 07:55:45;;;;;;;;;;;26.70;53.40;;;;;;5116944;28;20384;-77
2022/07/31 07:58:10;;;;;;;;;;;26.70;52.90;;;;;;5115236;28;19912;-76
2022/07/31 08:00:36;;;;;;;;;;;26.80;52.90;;;;;;5115175;28;19912;-77
2022/07/31 08:03:02;;;;;;;;;;;26.70;52.70;;;;;;5116505;28;19919;-76
2022/07/31 08:05:27;;;;;;;;;;;26.80;53.70;;;;;;5116505;28;19912;-76
2022/07/31 08:07:53;;;;;;;;;;;26.80;53.00;;;;;;5116081;28;20288;-75
2022/07/31 08:10:18;;;;;;;;;;;26.80;52.60;;;;;;5116590;28;19908;-77
2022/07/31 08:12:44;;;;;;;;;;;26.80;52.50;;;;;;5116215;28;19908;-76
2022/07/31 08:15:10;;;;;;;;;;;26.80;52.20;;;;;;5116265;28;19914;-76
2022/07/31 08:17:36;;;;;;;;;;;26.80;52.50;;;;;;5116426;28;20011;-76
2022/07/31 08:20:01;;;;;;;;;;;26.80;52.10;;;;;;5115965;28;20328;-76
2022/07/31 08:22:27;;;;;;;;;;;26.80;51.70;;;;;;5114880;28;20311;-77
2022/07/31 08:24:52;;;;;;;;;;;26.80;52.10;;;;;;5116154;28;20342;-76
2022/07/31 08:27:24;;;;;;;;;;;26.80;51.70;;;;;;5115971;28;20369;-76
2022/07/31 08:29:55;;;;;;;;;;;26.80;52.00;;;;;;5114816;28;19947;-76
2022/07/31 08:32:21;;;;;;;;;;;26.90;51.80;;;;;;5115655;28;19908;-77
2022/07/31 08:34:47;;;;;;;;;;;26.90;52.00;;;;;;5115707;28;20254;-77
2022/07/31 08:37:12;;;;;;;;;;;26.90;51.90;;;;;;5115648;28;19916;-76
2022/07/31 08:39:38;;;;;;;;;;;26.90;51.60;;;;;;5115955;28;19951;-77
2022/07/31 08:42:07;;;;;;;;;;;26.90;51.40;;;;;;5116042;28;19908;-76
2022/07/31 08:44:36;;;;;;;;;;;26.90;51.20;;;;;;5116162;28;19923;-78
2022/07/31 08:47:04;;;;;;;;;;;26.90;51.10;;;;;;5117086;28;19919;-79
2022/07/31 08:49:32;;;;;;;;;;;27.00;51.00;;;;;;5115869;28;19908;-79
2022/07/31 08:51:59;;;;;;;;;;;27.00;51.10;;;;;;5116090;28;20379;-78
2022/07/31 08:54:26;;;;;;;;;;;27.00;51.00;;;;;;5114441;28;19908;-78
2022/07/31 08:56:52;;;;;;;;;;;27.00;50.70;;;;;;5114788;28;19938;-76
2022/07/31 08:59:18;;;;;;;;;;;27.00;50.70;;;;;;5115965;28;19919;-76
2022/07/31 09:01:44;;;;;;;;;;;27.00;50.30;;;;;;5115066;28;19976;-76
2022/07/31 09:04:09;;;;;;;;;;;27.00;50.70;;;;;;5115500;28;20386;-77
2022/07/31 09:06:35;;;;;;;;;;;27.00;50.20;;;;;;5115481;28;20430;-77
2022/07/31 09:09:01;;;;;;;;;;;27.00;50.00;;;;;;5115127;28;19914;-76
2022/07/31 09:11:26;;;;;;;;;;;27.00;50.40;;;;;;5114859;28;19915;-77
2022/07/31 09:13:56;;;;;;;;;;;27.10;50.40;;;;;;5115258;28;19915;-76
2022/07/31 09:16:22;;;;;;;;;;;27.10;50.10;;;;;;5114917;28;20399;-75
2022/07/31 09:19:01;;;;;;;;;;;27.10;50.20;;;;;;5113648;28;19916;-77
2022/07/31 09:21:44;;;;;;;;;;;27.10;49.90;;;;;;5114237;28;19956;-76
2022/07/31 09:24:12;;;;;;;;;;;27.10;49.40;;;;;;5113881;28;19912;-76
2022/07/31 09:26:41;;;;;;;;;;;27.10;49.40;;;;;;5114491;28;20274;-77
2022/07/31 09:29:10;;;;;;;;;;;27.10;49.40;;;;;;5113987;28;20049;-77
2022/07/31 09:31:36;;;;;;;;;;;27.10;49.50;;;;;;5114886;28;20018;-77
2022/07/31 09:34:02;;;;;;;;;;;27.10;49.30;;;;;;5114963;28;19916;-77
2022/07/31 09:36:28;;;;;;;;;;;27.10;49.50;;;;;;5113378;28;19923;-77
2022/07/31 09:38:55;;;;;;;;;;;27.10;49.50;;;;;;5113876;28;20004;-78
2022/07/31 09:41:21;;;;;;;;;;;27.20;49.40;;;;;;5114599;28;19961;-77
2022/07/31 09:43:58;;;;;;;;;;;27.10;47.30;;;;;;5114804;28;19907;-77
2022/07/31 09:46:24;;;;;;;;;;;27.20;47.60;;;;;;5114725;28;19907;-76
2022/07/31 09:48:51;;;;;;;;;;;27.20;48.30;;;;;;5114590;28;19953;-76
2022/07/31 09:51:16;;;;;;;;;;;27.20;48.40;;;;;;5114609;28;20354;-77
2022/07/31 09:53:46;;;;;;;;;;;27.20;48.40;;;;;;5115664;28;19964;-77
2022/07/31 09:56:13;;;;;;;;;;;27.20;48.10;;;;;;5114608;28;19908;-77
2022/07/31 09:58:39;;;;;;;;;;;27.20;48.00;;;;;;5114726;28;19953;-77
2022/07/31 10:01:07;;;;;;;;;;;27.30;47.90;;;;;;5113891;28;19912;-77
2022/07/31 10:03:35;;;;;;;;;;;27.30;48.20;;;;;;5112940;28;19912;-78
2022/07/31 10:06:01;;;;;;;;;;;27.30;48.60;;;;;;5113123;28;20370;-77
2022/07/31 10:08:27;;;;;;;;;;;27.30;48.40;;;;;;5114272;28;19908;-77
2022/07/31 10:10:53;;;;;;;;;;;27.30;47.70;;;;;;5114379;28;20408;-77
2022/07/31 10:13:19;;;;;;;;;;;27.30;47.10;;;;;;5114255;28;19912;-77
2022/07/31 10:15:45;;;;;;;;;;;27.30;47.40;;;;;;5114309;28;19961;-78
2022/07/31 10:18:11;;;;;;;;;;;27.40;47.80;;;;;;5114392;28;19912;-78
2022/07/31 10:20:38;;;;;;;;;;;27.40;47.50;;;;;;5114392;28;19953;-77
2022/07/31 10:23:26;;;;;;;;;;;27.40;47.60;;;;;;5114285;28;19908;-77
2022/07/31 10:25:55;;;;;;;;;;;27.40;47.60;;;;;;5115041;28;19930;-76
2022/07/31 10:28:21;;;;;;;;;;;27.40;47.50;;;;;;5113858;28;19908;-77
2022/07/31 10:30:47;;;;;;;;;;;27.40;46.70;;;;;;5114288;28;19912;-77
2022/07/31 10:33:13;;;;;;;;;;;27.40;46.60;;;;;;5113957;28;19934;-77
2022/07/31 10:35:42;;;;;;;;;;;27.40;45.90;;;;;;5114098;28;20269;-77
2022/07/31 10:38:22;;;;;;;;;;;27.40;47.00;;;;;;5095752;28;20369;-77
2022/07/31 10:40:47;;;;;;;;;;;27.50;46.70;;;;;;5113023;28;19912;-76
2022/07/31 10:43:19;;;;;;;;;;;27.40;46.60;;;;;;5114265;28;20349;-77
2022/07/31 10:45:45;;;;;;;;;;;27.50;46.60;;;;;;5113948;28;19985;-77
2022/07/31 10:48:11;;;;;;;;;;;27.50;46.90;;;;;;5113714;28;19930;-77
2022/07/31 10:50:36;;;;;;;;;;;27.50;46.80;;;;;;5112359;28;20334;-77
2022/07/31 10:53:24;;;;;;;;;;;27.50;46.20;;;;;;5114140;28;19947;-76
2022/07/31 10:55:58;;;;;;;;;;;27.60;46.90;;;;;;5114342;28;19908;-77
2022/07/31 10:58:23;;;;;;;;;;;27.60;46.00;;;;;;5113938;28;20271;-78
2022/07/31 11:00:50;;;;;;;;;;;27.60;46.30;;;;;;5114072;28;19912;-78
2022/07/31 11:03:17;;;;;;;;;;;27.60;45.90;;;;;;5115240;28;19908;-77
2022/07/31 11:05:52;;;;;;;;;;;27.70;46.10;;;;;;5113828;28;20483;-77
2022/07/31 11:08:18;;;;;;;;;;;27.70;46.20;;;;;;5112728;28;19908;-77
2022/07/31 11:10:52;;;;;;;;;;;27.70;46.40;;;;;;5113853;28;20378;-77
2022/07/31 11:13:18;;;;;;;;;;;27.70;46.20;;;;;;5115013;28;19998;-78
2022/07/31 11:15:43;;;;;;;;;;;27.70;46.50;;;;;;5117806;28;19912;-78
2022/07/31 11:18:10;;;;;;;;;;;27.70;46.40;;;;;;5116142;28;20027;-76
2022/07/31 11:20:35;;;;;;;;;;;27.70;46.60;;;;;;5117497;28;19907;-77
2022/07/31 11:23:02;;;;;;;;;;;27.80;46.20;;;;;;5119373;28;19912;-77
2022/07/31 11:25:29;;;;;;;;;;;27.70;46.20;;;;;;5116479;28;19907;-77
2022/07/31 11:27:55;;;;;;;;;;;27.70;46.50;;;;;;5116265;28;20014;-77
2022/07/31 11:30:21;;;;;;;;;;;27.80;46.30;;;;;;5117254;28;20002;-77
2022/07/31 11:32:50;;;;;;;;;;;27.80;46.20;;;;;;5116952;28;19935;-77
2022/07/31 11:35:26;;;;;;;;;;;27.80;46.50;;;;;;5115421;28;20018;-77
2022/07/31 11:37:51;;;;;;;;;;;27.80;46.40;;;;;;5115681;28;19919;-77
2022/07/31 11:40:19;;;;;;;;;;;27.80;46.60;;;;;;5120262;28;19918;-78
2022/07/31 11:42:45;;;;;;;;;;;27.80;46.30;;;;;;5118997;28;20403;-77
2022/07/31 11:45:11;;;;;;;;;;;27.80;46.60;;;;;;5115630;28;19912;-77
2022/07/31 11:47:37;;;;;;;;;;;27.80;46.50;;;;;;5116722;28;19908;-77
2022/07/31 11:50:03;;;;;;;;;;;27.90;46.40;;;;;;5116816;28;19953;-76
2022/07/31 11:52:29;;;;;;;;;;;27.90;46.70;;;;;;5116860;28;20270;-77
2022/07/31 11:55:07;;;;;;;;;;;27.90;46.10;;;;;;5116697;28;19966;-78
2022/07/31 11:57:33;;;;;;;;;;;27.90;46.30;;;;;;5115541;28;19912;-77
2022/07/31 12:00:04;;;;;;;;;;;27.90;46.30;;;;;;5116404;28;19934;-77
2022/07/31 12:02:30;;;;;;;;;;;27.90;45.80;;;;;;5116741;28;20349;-77
2022/07/31 12:04:55;;;;;;;;;;;27.90;46.40;;;;;;5115021;28;19953;-76
2022/07/31 12:07:21;;;;;;;;;;;27.90;46.30;;;;;;5116383;28;19915;-77
2022/07/31 12:09:47;;;;;;;;;;;28.00;46.90;;;;;;5116521;28;19955;-77
2022/07/31 12:12:12;;;;;;;;;;;28.00;46.60;;;;;;5117177;28;19908;-77
2022/07/31 12:14:38;;;;;;;;;;;28.00;46.50;;;;;;5116572;28;19908;-77
2022/07/31 12:17:05;;;;;;;;;;;28.00;46.40;;;;;;5116378;28;19912;-77
2022/07/31 12:19:32;;;;;;;;;;;28.00;46.50;;;;;;5116198;28;19912;-77
2022/07/31 12:21:58;;;;;;;;;;;28.10;46.00;;;;;;5116067;28;19955;-78
2022/07/31 12:24:23;;;;;;;;;;;28.10;46.20;;;;;;5115663;28;19914;-78
2022/07/31 12:26:50;;;;;;;;;;;28.20;46.40;;;;;;5114500;28;19984;-81
2022/07/31 12:29:16;;;;;;;;;;;28.20;46.30;;;;;;5116383;28;19908;-79
2022/07/31 12:31:46;;;;;;;;;;;28.30;46.30;;;;;;5116003;28;19912;-80
2022/07/31 12:34:12;;;;;;;;;;;28.30;46.20;;;;;;5115668;28;19908;-81
2022/07/31 12:36:38;;;;;;;;;;;28.30;46.20;;;;;;5114516;28;19965;-80
2022/07/31 12:39:04;;;;;;;;;;;28.40;46.40;;;;;;5117882;28;19912;-82
2022/07/31 12:41:30;;;;;;;;;;;28.40;46.40;;;;;;5115099;28;20268;-79
2022/07/31 12:44:07;;;;;;;;;;;28.50;46.30;;;;;;5114635;28;20411;-83
2022/07/31 12:46:36;;;;;;;;;;;28.60;46.10;;;;;;5115608;28;19908;-79
2022/07/31 12:49:02;;;;;;;;;;;28.60;46.10;;;;;;5115693;28;19912;-81
2022/07/31 12:51:29;;;;;;;;;;;28.70;46.30;;;;;;5115401;28;19908;-81
2022/07/31 12:53:55;;;;;;;;;;;28.70;46.10;;;;;;5116037;28;20350;-79
2022/07/31 12:56:21;;;;;;;;;;;28.80;46.10;;;;;;5114391;28;19908;-77
2022/07/31 12:58:46;;;;;;;;;;;28.90;45.50;;;;;;5114022;28;19935;-81
2022/07/31 13:01:12;;;;;;;;;;;29.00;46.10;;;;;;5115470;28;20004;-78
2022/07/31 13:03:37;;;;;;;;;;;29.00;45.80;;;;;;5114129;28;20308;-80
2022/07/31 13:06:03;;;;;;;;;;;29.10;45.50;;;;;;5115747;28;19922;-78
2022/07/31 13:08:28;;;;;;;;;;;29.20;45.80;;;;;;5115737;28;19922;-79
2022/07/31 13:10:54;;;;;;;;;;;29.20;45.70;;;;;;5114256;28;19907;-79
2022/07/31 13:13:22;;;;;;;;;;;29.30;45.60;;;;;;5117737;28;19907;-79
2022/07/31 13:15:47;;;;;;;;;;;29.40;45.50;;;;;;5117626;28;20264;-79
2022/07/31 13:18:13;;;;;;;;;;;29.50;45.50;;;;;;5116477;28;19912;-79
2022/07/31 13:20:38;;;;;;;;;;;29.60;46.10;;;;;;5116773;28;19911;-81
2022/07/31 13:23:04;;;;;;;;;;;29.70;45.60;;;;;;5116632;28;19915;-80
2022/07/31 13:25:29;;;;;;;;;;;29.70;45.20;;;;;;5116112;28;19908;-79
2022/07/31 13:27:56;;;;;;;;;;;29.80;45.50;;;;;;5115736;28;19908;-78
2022/07/31 13:30:21;;;;;;;;;;;29.90;44.70;;;;;;5113933;28;20277;-80
2022/07/31 13:32:47;;;;;;;;;;;30.10;45.20;;;;;;5115338;28;19915;-80
2022/07/31 13:35:13;;;;;;;;;;;30.20;45.20;;;;;;5112818;28;20020;-80
2022/07/31 13:37:39;;;;;;;;;;;30.40;45.50;;;;;;5115301;28;20361;-80
2022/07/31 13:40:05;;;;;;;;;;;30.80;45.20;;;;;;5115276;28;20012;-79
2022/07/31 13:42:31;;;;;;;;;;;31.10;44.70;;;;;;5113431;28;19927;-80
2022/07/31 13:44:56;;;;;;;;;;;31.50;44.70;;;;;;5113924;28;19908;-79
2022/07/31 13:47:22;;;;;;;;;;;31.90;45.30;;;;;;5113599;28;19912;-79
2022/07/31 13:49:47;;;;;;;;;;;32.10;44.20;;;;;;5113271;28;20003;-79
2022/07/31 13:52:13;;;;;;;;;;;32.40;43.60;;;;;;5113648;28;19908;-79
2022/07/31 13:54:38;;;;;;;;;;;32.60;43.50;;;;;;5114527;28;20007;-79
2022/07/31 13:57:04;;;;;;;;;;;32.80;43.60;;;;;;5113204;28;19935;-79
2022/07/31 13:59:32;;;;;;;;;;;33.10;43.80;;;;;;5113429;28;19919;-80
2022/07/31 14:01:58;;;;;;;;;;;33.50;43.50;;;;;;5114434;28;20360;-79
2022/07/31 14:04:24;;;;;;;;;;;33.90;43.40;;;;;;5112999;28;19970;-78
2022/07/31 14:06:50;;;;;;;;;;;34.30;41.90;;;;;;5113267;28;19911;-79
2022/07/31 14:09:15;;;;;;;;;;;34.80;42.70;;;;;;5113786;28;19953;-80
2022/07/31 14:11:41;;;;;;;;;;;35.30;42.40;;;;;;5113612;28;19958;-79
2022/07/31 14:14:06;;;;;;;;;;;35.70;41.90;;;;;;5113137;28;19935;-79